sensor_id;sensor_type;location;lat;lon;timestamp;temperature;humidity
67862;DHT22;54665;51.462;6.698;2022-07-23T00:02:00;16.07;91.67
67862;DHT22;54665;51.462;6.698;2022-07-23T00:04:28;16.06;91.77
67862;DHT22;54665;51.462;6.698;2022-07-23T00:06:54;16.07;91.83
67862;DHT22;54665;51.462;6.698;2022-07-23T00:09:19;16.09;91.99
67862;DHT22;54665;51.462;6.698;2022-07-23T00:11:44;16.05;91.95
67862;DHT22;54665;51.462;6.698;2022-07-23T00:14:10;15.99;91.87
67862;DHT22;54665;51.462;6.698;2022-07-23T00:16:35;15.96;91.77
67862;DHT22;54665;51.462;6.698;2022-07-23T00:19:00;15.92;91.65
67862;DHT22;54665;51.462;6.698;2022-07-23T00:21:27;15.87;91.62
67862;DHT22;54665;51.462;6.698;2022-07-23T00:23:53;15.90;91.56
67862;DHT22;54665;51.462;6.698;2022-07-23T00:26:18;15.89;91.53
67862;DHT22;54665;51.462;6.698;2022-07-23T00:28:43;15.87;91.37
67862;DHT22;54665;51.462;6.698;2022-07-23T00:31:09;15.86;91.35
67862;DHT22;54665;51.462;6.698;2022-07-23T00:33:34;15.83;91.31
67862;DHT22;54665;51.462;6.698;2022-07-23T00:36:00;15.75;90.85
67862;DHT22;54665;51.462;6.698;2022-07-23T00:38:25;15.70;90.49
67862;DHT22;54665;51.462;6.698;2022-07-23T00:40:50;15.69;90.45
67862;DHT22;54665;51.462;6.698;2022-07-23T00:43:16;15.67;90.51
67862;DHT22;54665;51.462;6.698;2022-07-23T00:45:41;15.69;90.49
67862;DHT22;54665;51.462;6.698;2022-07-23T00:48:07;15.67;90.60
67862;DHT22;54665;51.462;6.698;2022-07-23T00:50:32;15.62;90.73
67862;DHT22;54665;51.462;6.698;2022-07-23T00:52:58;15.55;91.17
67862;DHT22;54665;51.462;6.698;2022-07-23T00:55:23;15.44;91.51
67862;DHT22;54665;51.462;6.698;2022-07-23T00:57:49;15.39;91.71
67862;DHT22;54665;51.462;6.698;2022-07-23T01:00:16;15.38;91.83
67862;DHT22;54665;51.462;6.698;2022-07-23T01:02:41;15.27;91.95
67862;DHT22;54665;51.462;6.698;2022-07-23T01:05:08;15.23;92.22
67862;DHT22;54665;51.462;6.698;2022-07-23T01:07:34;15.20;92.39
67862;DHT22;54665;51.462;6.698;2022-07-23T01:10:00;15.28;92.61
67862;DHT22;54665;51.462;6.698;2022-07-23T01:12:25;15.32;92.82
67862;DHT22;54665;51.462;6.698;2022-07-23T01:14:58;15.36;93.00
67862;DHT22;54665;51.462;6.698;2022-07-23T01:17:26;15.44;93.12
67862;DHT22;54665;51.462;6.698;2022-07-23T01:19:52;15.51;93.22
67862;DHT22;54665;51.462;6.698;2022-07-23T01:22:19;15.52;93.26
67862;DHT22;54665;51.462;6.698;2022-07-23T01:24:44;15.56;93.22
67862;DHT22;54665;51.462;6.698;2022-07-23T01:27:10;15.56;93.24
67862;DHT22;54665;51.462;6.698;2022-07-23T01:29:38;15.58;93.28
67862;DHT22;54665;51.462;6.698;2022-07-23T01:32:09;15.54;93.33
67862;DHT22;54665;51.462;6.698;2022-07-23T01:34:34;15.54;93.39
67862;DHT22;54665;51.462;6.698;2022-07-23T01:37:00;15.54;93.44
67862;DHT22;54665;51.462;6.698;2022-07-23T01:39:26;15.51;93.38
67862;DHT22;54665;51.462;6.698;2022-07-23T01:41:52;15.46;93.37
67862;DHT22;54665;51.462;6.698;2022-07-23T01:44:18;15.41;93.32
67862;DHT22;54665;51.462;6.698;2022-07-23T01:46:44;15.35;93.23
67862;DHT22;54665;51.462;6.698;2022-07-23T01:49:10;15.28;93.18
67862;DHT22;54665;51.462;6.698;2022-07-23T01:51:54;15.23;93.19
67862;DHT22;54665;51.462;6.698;2022-07-23T01:54:32;15.11;93.18
67862;DHT22;54665;51.462;6.698;2022-07-23T01:56:58;15.05;93.24
67862;DHT22;54665;51.462;6.698;2022-07-23T01:59:25;15.04;93.30
67862;DHT22;54665;51.462;6.698;2022-07-23T02:01:51;14.98;93.37
67862;DHT22;54665;51.462;6.698;2022-07-23T02:04:18;14.87;93.34
67862;DHT22;54665;51.462;6.698;2022-07-23T02:06:43;14.72;93.39
67862;DHT22;54665;51.462;6.698;2022-07-23T02:09:09;14.63;93.45
67862;DHT22;54665;51.462;6.698;2022-07-23T02:11:34;14.57;93.58
67862;DHT22;54665;51.462;6.698;2022-07-23T02:14:00;14.50;93.60
67862;DHT22;54665;51.462;6.698;2022-07-23T02:16:25;14.42;93.67
67862;DHT22;54665;51.462;6.698;2022-07-23T02:18:51;14.44;93.85
67862;DHT22;54665;51.462;6.698;2022-07-23T02:21:16;14.44;93.99
67862;DHT22;54665;51.462;6.698;2022-07-23T02:23:41;14.55;94.06
67862;DHT22;54665;51.462;6.698;2022-07-23T02:26:07;14.63;94.11
67862;DHT22;54665;51.462;6.698;2022-07-23T02:28:32;14.72;94.21
67862;DHT22;54665;51.462;6.698;2022-07-23T02:30:58;14.74;94.20
67862;DHT22;54665;51.462;6.698;2022-07-23T02:33:23;14.79;94.27
67862;DHT22;54665;51.462;6.698;2022-07-23T02:35:49;14.74;94.32
67862;DHT22;54665;51.462;6.698;2022-07-23T02:38:18;14.72;94.36
67862;DHT22;54665;51.462;6.698;2022-07-23T02:40:45;14.63;94.39
67862;DHT22;54665;51.462;6.698;2022-07-23T02:43:10;14.57;94.42
67862;DHT22;54665;51.462;6.698;2022-07-23T02:45:37;14.53;94.54
67862;DHT22;54665;51.462;6.698;2022-07-23T02:48:03;14.43;94.59
67862;DHT22;54665;51.462;6.698;2022-07-23T02:50:29;14.33;94.68
67862;DHT22;54665;51.462;6.698;2022-07-23T02:52:56;14.19;94.72
67862;DHT22;54665;51.462;6.698;2022-07-23T02:55:23;14.13;94.79
67862;DHT22;54665;51.462;6.698;2022-07-23T02:57:48;14.05;94.83
67862;DHT22;54665;51.462;6.698;2022-07-23T03:00:14;14.05;94.91
67862;DHT22;54665;51.462;6.698;2022-07-23T03:02:39;13.97;94.97
67862;DHT22;54665;51.462;6.698;2022-07-23T03:05:05;13.97;95.05
67862;DHT22;54665;51.462;6.698;2022-07-23T03:07:33;13.86;95.11
67862;DHT22;54665;51.462;6.698;2022-07-23T03:09:58;13.88;95.28
67862;DHT22;54665;51.462;6.698;2022-07-23T03:12:24;13.94;95.29
67862;DHT22;54665;51.462;6.698;2022-07-23T03:14:49;13.94;95.33
67862;DHT22;54665;51.462;6.698;2022-07-23T03:17:14;13.95;95.38
67862;DHT22;54665;51.462;6.698;2022-07-23T03:19:40;13.84;95.41
67862;DHT22;54665;51.462;6.698;2022-07-23T03:22:06;13.70;95.37
67862;DHT22;54665;51.462;6.698;2022-07-23T03:24:32;13.65;95.44
67862;DHT22;54665;51.462;6.698;2022-07-23T03:27:16;13.62;95.48
67862;DHT22;54665;51.462;6.698;2022-07-23T03:29:41;13.58;95.45
67862;DHT22;54665;51.462;6.698;2022-07-23T03:32:07;13.57;95.50
67862;DHT22;54665;51.462;6.698;2022-07-23T03:34:32;13.58;95.58
67862;DHT22;54665;51.462;6.698;2022-07-23T03:36:58;13.67;95.62
67862;DHT22;54665;51.462;6.698;2022-07-23T03:39:24;13.72;95.69
67862;DHT22;54665;51.462;6.698;2022-07-23T03:41:49;13.72;95.71
67862;DHT22;54665;51.462;6.698;2022-07-23T03:44:14;13.77;95.66
67862;DHT22;54665;51.462;6.698;2022-07-23T03:46:41;13.77;95.65
67862;DHT22;54665;51.462;6.698;2022-07-23T03:49:06;13.81;95.67
67862;DHT22;54665;51.462;6.698;2022-07-23T03:51:33;13.84;95.66
67862;DHT22;54665;51.462;6.698;2022-07-23T03:53:59;13.82;95.66
67862;DHT22;54665;51.462;6.698;2022-07-23T03:56:24;13.85;95.68
67862;DHT22;54665;51.462;6.698;2022-07-23T03:58:50;13.84;95.67
67862;DHT22;54665;51.462;6.698;2022-07-23T04:01:15;13.81;95.67
67862;DHT22;54665;51.462;6.698;2022-07-23T04:03:41;13.81;95.64
67862;DHT22;54665;51.462;6.698;2022-07-23T04:06:07;13.86;95.70
67862;DHT22;54665;51.462;6.698;2022-07-23T04:08:34;13.98;95.69
67862;DHT22;54665;51.462;6.698;2022-07-23T04:11:01;14.01;95.65
67862;DHT22;54665;51.462;6.698;2022-07-23T04:13:26;14.01;95.59
67862;DHT22;54665;51.462;6.698;2022-07-23T04:15:51;14.01;95.53
67862;DHT22;54665;51.462;6.698;2022-07-23T04:18:17;14.04;95.44
67862;DHT22;54665;51.462;6.698;2022-07-23T04:20:52;14.05;95.42
67862;DHT22;54665;51.462;6.698;2022-07-23T04:23:17;14.09;95.36
67862;DHT22;54665;51.462;6.698;2022-07-23T04:25:44;14.09;95.34
67862;DHT22;54665;51.462;6.698;2022-07-23T04:28:09;14.08;95.29
67862;DHT22;54665;51.462;6.698;2022-07-23T04:30:35;14.15;95.25
67862;DHT22;54665;51.462;6.698;2022-07-23T04:33:01;14.12;95.22
67862;DHT22;54665;51.462;6.698;2022-07-23T04:35:27;14.16;95.15
67862;DHT22;54665;51.462;6.698;2022-07-23T04:37:59;14.19;95.17
67862;DHT22;54665;51.462;6.698;2022-07-23T04:40:25;14.18;95.16
67862;DHT22;54665;51.462;6.698;2022-07-23T04:42:51;14.16;95.15
67862;DHT22;54665;51.462;6.698;2022-07-23T04:45:17;14.26;95.10
67862;DHT22;54665;51.462;6.698;2022-07-23T04:47:43;14.29;95.08
67862;DHT22;54665;51.462;6.698;2022-07-23T04:50:11;14.33;95.06
67862;DHT22;54665;51.462;6.698;2022-07-23T04:52:40;14.33;94.98
67862;DHT22;54665;51.462;6.698;2022-07-23T04:55:06;14.33;94.97
67862;DHT22;54665;51.462;6.698;2022-07-23T04:57:33;14.36;94.94
67862;DHT22;54665;51.462;6.698;2022-07-23T04:59:58;14.42;94.92
67862;DHT22;54665;51.462;6.698;2022-07-23T05:02:24;14.47;94.88
67862;DHT22;54665;51.462;6.698;2022-07-23T05:04:49;14.55;94.84
67862;DHT22;54665;51.462;6.698;2022-07-23T05:07:15;14.59;94.80
67862;DHT22;54665;51.462;6.698;2022-07-23T05:09:40;14.63;94.72
67862;DHT22;54665;51.462;6.698;2022-07-23T05:12:06;14.74;94.59
67862;DHT22;54665;51.462;6.698;2022-07-23T05:14:33;14.77;94.52
67862;DHT22;54665;51.462;6.698;2022-07-23T05:16:59;14.84;94.44
67862;DHT22;54665;51.462;6.698;2022-07-23T05:19:25;14.87;94.40
67862;DHT22;54665;51.462;6.698;2022-07-23T05:21:52;14.88;94.33
67862;DHT22;54665;51.462;6.698;2022-07-23T05:24:17;14.93;94.20
67862;DHT22;54665;51.462;6.698;2022-07-23T05:26:43;14.97;94.13
67862;DHT22;54665;51.462;6.698;2022-07-23T05:29:09;15.04;94.01
67862;DHT22;54665;51.462;6.698;2022-07-23T05:31:34;15.07;93.87
67862;DHT22;54665;51.462;6.698;2022-07-23T05:34:00;15.10;93.34
67862;DHT22;54665;51.462;6.698;2022-07-23T05:36:26;15.15;93.30
67862;DHT22;54665;51.462;6.698;2022-07-23T05:38:54;15.20;93.07
67862;DHT22;54665;51.462;6.698;2022-07-23T05:41:19;15.28;92.94
67862;DHT22;54665;51.462;6.698;2022-07-23T05:43:48;15.34;92.83
67862;DHT22;54665;51.462;6.698;2022-07-23T05:46:14;15.36;92.69
67862;DHT22;54665;51.462;6.698;2022-07-23T05:48:41;15.42;92.63
67862;DHT22;54665;51.462;6.698;2022-07-23T05:51:22;15.52;92.45
67862;DHT22;54665;51.462;6.698;2022-07-23T05:53:49;15.59;92.21
67862;DHT22;54665;51.462;6.698;2022-07-23T05:56:19;15.65;92.19
67862;DHT22;54665;51.462;6.698;2022-07-23T05:58:44;15.72;91.93
67862;DHT22;54665;51.462;6.698;2022-07-23T06:01:11;15.86;91.92
67862;DHT22;54665;51.462;6.698;2022-07-23T06:03:48;15.95;91.93
67862;DHT22;54665;51.462;6.698;2022-07-23T06:06:16;16.03;91.76
67862;DHT22;54665;51.462;6.698;2022-07-23T06:08:44;16.12;91.56
67862;DHT22;54665;51.462;6.698;2022-07-23T06:11:10;16.30;91.34
67862;DHT22;54665;51.462;6.698;2022-07-23T06:13:36;16.46;90.67
67862;DHT22;54665;51.462;6.698;2022-07-23T06:16:02;17.29;88.63
67862;DHT22;54665;51.462;6.698;2022-07-23T06:18:29;18.17;84.96
67862;DHT22;54665;51.462;6.698;2022-07-23T06:20:54;18.75;80.20
67862;DHT22;54665;51.462;6.698;2022-07-23T06:23:19;19.19;77.76
67862;DHT22;54665;51.462;6.698;2022-07-23T06:25:45;19.44;75.71
67862;DHT22;54665;51.462;6.698;2022-07-23T06:28:10;19.65;74.69
67862;DHT22;54665;51.462;6.698;2022-07-23T06:30:36;19.83;72.51
67862;DHT22;54665;51.462;6.698;2022-07-23T06:33:02;19.86;72.10
67862;DHT22;54665;51.462;6.698;2022-07-23T06:35:28;20.20;71.62
67862;DHT22;54665;51.462;6.698;2022-07-23T06:37:54;20.15;70.36
67862;DHT22;54665;51.462;6.698;2022-07-23T06:40:20;20.02;71.13
67862;DHT22;54665;51.462;6.698;2022-07-23T06:42:46;20.34;70.20
67862;DHT22;54665;51.462;6.698;2022-07-23T06:45:16;20.46;69.25
67862;DHT22;54665;51.462;6.698;2022-07-23T06:47:42;20.60;66.96
67862;DHT22;54665;51.462;6.698;2022-07-23T06:50:08;20.67;66.72
67862;DHT22;54665;51.462;6.698;2022-07-23T06:52:34;20.81;67.56
67862;DHT22;54665;51.462;6.698;2022-07-23T06:54:59;20.52;67.66
67862;DHT22;54665;51.462;6.698;2022-07-23T06:57:24;20.79;68.19
67862;DHT22;54665;51.462;6.698;2022-07-23T06:59:51;20.88;66.01
67862;DHT22;54665;51.462;6.698;2022-07-23T07:02:16;20.83;65.96
67862;DHT22;54665;51.462;6.698;2022-07-23T07:04:42;20.97;67.24
67862;DHT22;54665;51.462;6.698;2022-07-23T07:07:07;20.83;66.28
67862;DHT22;54665;51.462;6.698;2022-07-23T07:09:33;20.94;65.34
67862;DHT22;54665;51.462;6.698;2022-07-23T07:11:58;21.24;64.19
67862;DHT22;54665;51.462;6.698;2022-07-23T07:14:24;21.32;64.60
67862;DHT22;54665;51.462;6.698;2022-07-23T07:16:49;21.45;62.57
67862;DHT22;54665;51.462;6.698;2022-07-23T07:19:14;21.30;61.61
67862;DHT22;54665;51.462;6.698;2022-07-23T07:21:40;21.46;63.85
67862;DHT22;54665;51.462;6.698;2022-07-23T07:24:05;21.79;62.88
67862;DHT22;54665;51.462;6.698;2022-07-23T07:26:31;22.10;61.33
67862;DHT22;54665;51.462;6.698;2022-07-23T07:28:57;22.09;59.78
67862;DHT22;54665;51.462;6.698;2022-07-23T07:31:23;22.14;61.00
67862;DHT22;54665;51.462;6.698;2022-07-23T07:33:48;21.83;60.11
67862;DHT22;54665;51.462;6.698;2022-07-23T07:36:13;21.92;59.59
67862;DHT22;54665;51.462;6.698;2022-07-23T07:38:39;21.73;57.58
67862;DHT22;54665;51.462;6.698;2022-07-23T07:41:04;21.78;61.26
67862;DHT22;54665;51.462;6.698;2022-07-23T07:43:30;21.48;60.13
67862;DHT22;54665;51.462;6.698;2022-07-23T07:45:55;21.88;60.42
67862;DHT22;54665;51.462;6.698;2022-07-23T07:48:20;22.47;59.31
67862;DHT22;54665;51.462;6.698;2022-07-23T07:50:46;22.76;57.89
67862;DHT22;54665;51.462;6.698;2022-07-23T07:53:11;23.12;56.61
67862;DHT22;54665;51.462;6.698;2022-07-23T07:55:37;23.64;57.11
67862;DHT22;54665;51.462;6.698;2022-07-23T07:58:02;24.27;54.50
67862;DHT22;54665;51.462;6.698;2022-07-23T08:00:28;24.48;53.55
67862;DHT22;54665;51.462;6.698;2022-07-23T08:02:54;24.34;54.01
67862;DHT22;54665;51.462;6.698;2022-07-23T08:05:24;24.71;52.40
67862;DHT22;54665;51.462;6.698;2022-07-23T08:07:50;24.61;51.47
67862;DHT22;54665;51.462;6.698;2022-07-23T08:10:16;24.59;51.75
67862;DHT22;54665;51.462;6.698;2022-07-23T08:12:50;24.13;53.62
67862;DHT22;54665;51.462;6.698;2022-07-23T08:15:17;24.03;54.71
67862;DHT22;54665;51.462;6.698;2022-07-23T08:17:44;24.32;53.92
67862;DHT22;54665;51.462;6.698;2022-07-23T08:20:11;24.54;53.77
67862;DHT22;54665;51.462;6.698;2022-07-23T08:22:54;24.48;53.84
67862;DHT22;54665;51.462;6.698;2022-07-23T08:27:47;24.04;53.20
67862;DHT22;54665;51.462;6.698;2022-07-23T08:30:14;23.52;55.51
67862;DHT22;54665;51.462;6.698;2022-07-23T08:32:48;23.96;52.81
67862;DHT22;54665;51.462;6.698;2022-07-23T08:35:15;24.29;53.93
67862;DHT22;54665;51.462;6.698;2022-07-23T08:37:41;24.55;50.71
67862;DHT22;54665;51.462;6.698;2022-07-23T08:40:07;24.45;51.00
67862;DHT22;54665;51.462;6.698;2022-07-23T08:42:33;23.98;52.00
67862;DHT22;54665;51.462;6.698;2022-07-23T08:45:02;23.94;50.30
67862;DHT22;54665;51.462;6.698;2022-07-23T08:47:27;23.78;51.08
67862;DHT22;54665;51.462;6.698;2022-07-23T08:49:53;23.59;51.19
67862;DHT22;54665;51.462;6.698;2022-07-23T08:52:20;23.81;50.68
67862;DHT22;54665;51.462;6.698;2022-07-23T08:54:45;24.38;49.82
67862;DHT22;54665;51.462;6.698;2022-07-23T08:57:12;24.28;48.44
67862;DHT22;54665;51.462;6.698;2022-07-23T08:59:37;24.61;49.01
67862;DHT22;54665;51.462;6.698;2022-07-23T09:02:04;25.43;46.40
67862;DHT22;54665;51.462;6.698;2022-07-23T09:04:30;25.47;47.68
67862;DHT22;54665;51.462;6.698;2022-07-23T09:06:56;24.48;47.70
67862;DHT22;54665;51.462;6.698;2022-07-23T09:09:22;24.80;46.19
67862;DHT22;54665;51.462;6.698;2022-07-23T09:12:10;25.12;45.72
67862;DHT22;54665;51.462;6.698;2022-07-23T09:14:38;25.44;45.14
67862;DHT22;54665;51.462;6.698;2022-07-23T09:17:14;25.44;45.48
67862;DHT22;54665;51.462;6.698;2022-07-23T09:19:41;25.26;46.94
67862;DHT22;54665;51.462;6.698;2022-07-23T09:22:24;25.51;46.40
67862;DHT22;54665;51.462;6.698;2022-07-23T09:27:55;24.73;47.76
67862;DHT22;54665;51.462;6.698;2022-07-23T09:30:23;25.06;46.95
67862;DHT22;54665;51.462;6.698;2022-07-23T09:38:12;25.38;46.41
67862;DHT22;54665;51.462;6.698;2022-07-23T09:40:38;25.47;45.90
67862;DHT22;54665;51.462;6.698;2022-07-23T09:43:03;24.83;46.46
67862;DHT22;54665;51.462;6.698;2022-07-23T09:45:29;24.86;46.83
67862;DHT22;54665;51.462;6.698;2022-07-23T09:48:15;25.53;45.81
67862;DHT22;54665;51.462;6.698;2022-07-23T09:50:43;25.12;45.41
67862;DHT22;54665;51.462;6.698;2022-07-23T09:53:08;25.47;45.77
67862;DHT22;54665;51.462;6.698;2022-07-23T09:55:35;25.54;45.42
67862;DHT22;54665;51.462;6.698;2022-07-23T09:58:03;25.94;44.94
67862;DHT22;54665;51.462;6.698;2022-07-23T10:00:29;26.08;44.64
67862;DHT22;54665;51.462;6.698;2022-07-23T10:02:56;25.31;45.24
67862;DHT22;54665;51.462;6.698;2022-07-23T10:05:29;25.63;44.21
67862;DHT22;54665;51.462;6.698;2022-07-23T10:08:16;25.82;44.46
67862;DHT22;54665;51.462;6.698;2022-07-23T10:11:01;25.64;44.78
67862;DHT22;54665;51.462;6.698;2022-07-23T10:13:31;24.69;47.54
67862;DHT22;54665;51.462;6.698;2022-07-23T10:16:17;24.58;47.60
67862;DHT22;54665;51.462;6.698;2022-07-23T10:18:43;24.38;48.15
67862;DHT22;54665;51.462;6.698;2022-07-23T10:21:09;24.96;46.58
67862;DHT22;54665;51.462;6.698;2022-07-23T10:23:41;24.83;48.21
67862;DHT22;54665;51.462;6.698;2022-07-23T10:26:12;25.12;46.61
67862;DHT22;54665;51.462;6.698;2022-07-23T10:31:42;25.53;43.97
67862;DHT22;54665;51.462;6.698;2022-07-23T10:37:04;24.87;46.49
67862;DHT22;54665;51.462;6.698;2022-07-23T10:39:33;24.93;47.35
67862;DHT22;54665;51.462;6.698;2022-07-23T10:42:13;25.53;44.42
67862;DHT22;54665;51.462;6.698;2022-07-23T10:44:44;25.66;44.11
67862;DHT22;54665;51.462;6.698;2022-07-23T10:47:10;25.26;45.58
67862;DHT22;54665;51.462;6.698;2022-07-23T10:49:48;24.93;46.51
67862;DHT22;54665;51.462;6.698;2022-07-23T10:54:43;24.42;46.87
67862;DHT22;54665;51.462;6.698;2022-07-23T10:57:11;24.56;48.71
67862;DHT22;54665;51.462;6.698;2022-07-23T11:02:31;24.39;47.50
67862;DHT22;54665;51.462;6.698;2022-07-23T11:05:00;24.59;47.31
67862;DHT22;54665;51.462;6.698;2022-07-23T11:07:26;24.87;47.88
67862;DHT22;54665;51.462;6.698;2022-07-23T11:09:52;24.55;46.80
67862;DHT22;54665;51.462;6.698;2022-07-23T11:15:08;24.71;47.45
67862;DHT22;54665;51.462;6.698;2022-07-23T11:22:38;24.76;47.74
67862;DHT22;54665;51.462;6.698;2022-07-23T11:25:05;24.71;45.90
67862;DHT22;54665;51.462;6.698;2022-07-23T11:27:37;24.58;46.36
67862;DHT22;54665;51.462;6.698;2022-07-23T11:30:03;24.24;45.62
67862;DHT22;54665;51.462;6.698;2022-07-23T11:32:40;24.39;45.87
67862;DHT22;54665;51.462;6.698;2022-07-23T11:35:25;24.73;45.68
67862;DHT22;54665;51.462;6.698;2022-07-23T11:37:52;24.62;44.77
67862;DHT22;54665;51.462;6.698;2022-07-23T11:40:24;24.48;45.70
67862;DHT22;54665;51.462;6.698;2022-07-23T11:43:01;24.45;46.54
67862;DHT22;54665;51.462;6.698;2022-07-23T11:45:35;24.80;45.85
67862;DHT22;54665;51.462;6.698;2022-07-23T11:48:04;25.03;44.21
67862;DHT22;54665;51.462;6.698;2022-07-23T11:50:30;24.93;44.64
67862;DHT22;54665;51.462;6.698;2022-07-23T11:52:56;25.22;43.72
67862;DHT22;54665;51.462;6.698;2022-07-23T11:55:22;25.41;43.14
67862;DHT22;54665;51.462;6.698;2022-07-23T11:57:48;25.05;44.55
67862;DHT22;54665;51.462;6.698;2022-07-23T12:00:21;24.83;44.14
67862;DHT22;54665;51.462;6.698;2022-07-23T12:02:49;24.95;44.88
67862;DHT22;54665;51.462;6.698;2022-07-23T12:05:26;25.28;42.72
67862;DHT22;54665;51.462;6.698;2022-07-23T12:07:54;25.67;42.02
67862;DHT22;54665;51.462;6.698;2022-07-23T12:10:28;25.38;44.21
67862;DHT22;54665;51.462;6.698;2022-07-23T12:13:05;25.15;43.02
67862;DHT22;54665;51.462;6.698;2022-07-23T12:15:37;24.92;44.72
67862;DHT22;54665;51.462;6.698;2022-07-23T12:18:04;25.44;43.38
67862;DHT22;54665;51.462;6.698;2022-07-23T12:20:42;25.71;43.44
67862;DHT22;54665;51.462;6.698;2022-07-23T12:23:09;25.97;41.54
67862;DHT22;54665;51.462;6.698;2022-07-23T12:25:38;26.11;41.01
67862;DHT22;54665;51.462;6.698;2022-07-23T12:28:09;26.31;40.64
67862;DHT22;54665;51.462;6.698;2022-07-23T12:30:52;25.99;40.83
67862;DHT22;54665;51.462;6.698;2022-07-23T12:33:25;25.89;41.22
67862;DHT22;54665;51.462;6.698;2022-07-23T12:35:54;25.85;43.87
67862;DHT22;54665;51.462;6.698;2022-07-23T12:38:21;26.05;42.99
67862;DHT22;54665;51.462;6.698;2022-07-23T12:40:57;25.98;43.87
67862;DHT22;54665;51.462;6.698;2022-07-23T12:45:55;26.19;41.23
67862;DHT22;54665;51.462;6.698;2022-07-23T12:48:26;26.45;42.85
67862;DHT22;54665;51.462;6.698;2022-07-23T12:53:24;26.61;41.75
67862;DHT22;54665;51.462;6.698;2022-07-23T12:55:57;26.09;42.05
67862;DHT22;54665;51.462;6.698;2022-07-23T12:58:26;26.01;42.24
67862;DHT22;54665;51.462;6.698;2022-07-23T13:01:00;25.77;43.71
67862;DHT22;54665;51.462;6.698;2022-07-23T13:03:34;25.84;42.91
67862;DHT22;54665;51.462;6.698;2022-07-23T13:06:01;26.25;42.90
67862;DHT22;54665;51.462;6.698;2022-07-23T13:08:29;26.56;42.89
67862;DHT22;54665;51.462;6.698;2022-07-23T13:10:55;26.02;42.76
67862;DHT22;54665;51.462;6.698;2022-07-23T13:13:25;26.02;41.59
67862;DHT22;54665;51.462;6.698;2022-07-23T13:15:51;26.26;42.04
67862;DHT22;54665;51.462;6.698;2022-07-23T13:18:18;26.55;42.75
67862;DHT22;54665;51.462;6.698;2022-07-23T13:20:45;26.50;43.86
67862;DHT22;54665;51.462;6.698;2022-07-23T13:23:11;26.75;40.93
67862;DHT22;54665;51.462;6.698;2022-07-23T13:25:37;26.93;40.52
67862;DHT22;54665;51.462;6.698;2022-07-23T13:28:02;27.14;41.09
67862;DHT22;54665;51.462;6.698;2022-07-23T13:30:28;26.93;40.70
67862;DHT22;54665;51.462;6.698;2022-07-23T13:32:54;26.11;41.97
67862;DHT22;54665;51.462;6.698;2022-07-23T13:35:19;26.16;41.90
67862;DHT22;54665;51.462;6.698;2022-07-23T13:37:45;26.35;42.30
67862;DHT22;54665;51.462;6.698;2022-07-23T13:40:10;26.08;41.92
67862;DHT22;54665;51.462;6.698;2022-07-23T13:42:37;25.84;41.29
67862;DHT22;54665;51.462;6.698;2022-07-23T13:45:04;26.28;41.94
67862;DHT22;54665;51.462;6.698;2022-07-23T13:47:30;26.46;41.85
67862;DHT22;54665;51.462;6.698;2022-07-23T13:49:55;26.75;41.05
67862;DHT22;54665;51.462;6.698;2022-07-23T13:52:21;27.18;41.69
67862;DHT22;54665;51.462;6.698;2022-07-23T13:54:47;27.06;39.55
67862;DHT22;54665;51.462;6.698;2022-07-23T13:57:12;26.47;42.99
67862;DHT22;54665;51.462;6.698;2022-07-23T13:59:38;26.72;42.16
67862;DHT22;54665;51.462;6.698;2022-07-23T14:02:04;26.56;40.92
67862;DHT22;54665;51.462;6.698;2022-07-23T14:04:30;25.87;43.90
67862;DHT22;54665;51.462;6.698;2022-07-23T14:06:56;25.82;44.76
67862;DHT22;54665;51.462;6.698;2022-07-23T14:09:22;25.36;45.64
67862;DHT22;54665;51.462;6.698;2022-07-23T14:11:47;25.07;45.46
67862;DHT22;54665;51.462;6.698;2022-07-23T14:14:13;25.26;46.51
67862;DHT22;54665;51.462;6.698;2022-07-23T14:16:39;26.08;44.93
67862;DHT22;54665;51.462;6.698;2022-07-23T14:19:04;26.02;45.54
67862;DHT22;54665;51.462;6.698;2022-07-23T14:21:30;25.56;45.17
67862;DHT22;54665;51.462;6.698;2022-07-23T14:23:55;25.54;45.46
67862;DHT22;54665;51.462;6.698;2022-07-23T14:26:21;25.88;46.36
67862;DHT22;54665;51.462;6.698;2022-07-23T14:28:46;25.63;45.18
67862;DHT22;54665;51.462;6.698;2022-07-23T14:31:12;25.38;46.01
67862;DHT22;54665;51.462;6.698;2022-07-23T14:33:38;24.92;45.72
67862;DHT22;54665;51.462;6.698;2022-07-23T14:36:03;24.82;46.87
67862;DHT22;54665;51.462;6.698;2022-07-23T14:38:29;24.58;46.62
67862;DHT22;54665;51.462;6.698;2022-07-23T14:40:56;24.49;46.96
67862;DHT22;54665;51.462;6.698;2022-07-23T14:43:22;24.25;47.54
67862;DHT22;54665;51.462;6.698;2022-07-23T14:45:48;24.25;47.75
67862;DHT22;54665;51.462;6.698;2022-07-23T14:48:14;24.28;47.47
67862;DHT22;54665;51.462;6.698;2022-07-23T14:50:39;24.51;46.73
67862;DHT22;54665;51.462;6.698;2022-07-23T14:53:05;24.90;46.61
67862;DHT22;54665;51.462;6.698;2022-07-23T14:55:31;24.86;46.77
67862;DHT22;54665;51.462;6.698;2022-07-23T14:57:57;25.05;45.52
67862;DHT22;54665;51.462;6.698;2022-07-23T15:00:22;26.18;44.59
67862;DHT22;54665;51.462;6.698;2022-07-23T15:02:48;27.01;45.05
67862;DHT22;54665;51.462;6.698;2022-07-23T15:05:13;27.15;43.07
67862;DHT22;54665;51.462;6.698;2022-07-23T15:07:39;26.64;43.54
67862;DHT22;54665;51.462;6.698;2022-07-23T15:10:04;26.39;44.21
67862;DHT22;54665;51.462;6.698;2022-07-23T15:12:30;26.01;44.83
67862;DHT22;54665;51.462;6.698;2022-07-23T15:14:55;25.66;45.31
67862;DHT22;54665;51.462;6.698;2022-07-23T15:17:21;25.78;45.80
67862;DHT22;54665;51.462;6.698;2022-07-23T15:19:46;25.88;44.27
67862;DHT22;54665;51.462;6.698;2022-07-23T15:22:12;25.97;45.67
67862;DHT22;54665;51.462;6.698;2022-07-23T15:24:37;25.44;46.18
67862;DHT22;54665;51.462;6.698;2022-07-23T15:27:02;24.97;45.12
67862;DHT22;54665;51.462;6.698;2022-07-23T15:29:28;25.15;47.69
67862;DHT22;54665;51.462;6.698;2022-07-23T15:31:54;25.43;46.26
67862;DHT22;54665;51.462;6.698;2022-07-23T15:34:19;25.19;45.83
67862;DHT22;54665;51.462;6.698;2022-07-23T15:36:44;25.09;46.66
67862;DHT22;54665;51.462;6.698;2022-07-23T15:39:10;25.06;46.63
67862;DHT22;54665;51.462;6.698;2022-07-23T15:41:36;25.56;44.92
67862;DHT22;54665;51.462;6.698;2022-07-23T15:44:01;26.02;44.58
67862;DHT22;54665;51.462;6.698;2022-07-23T15:46:28;26.42;44.89
67862;DHT22;54665;51.462;6.698;2022-07-23T15:48:53;26.25;44.27
67862;DHT22;54665;51.462;6.698;2022-07-23T15:51:19;25.78;44.51
67862;DHT22;54665;51.462;6.698;2022-07-23T15:53:44;25.30;45.42
67862;DHT22;54665;51.462;6.698;2022-07-23T15:56:10;25.03;45.70
67862;DHT22;54665;51.462;6.698;2022-07-23T15:58:36;24.92;46.20
67862;DHT22;54665;51.462;6.698;2022-07-23T16:01:02;24.87;46.76
67862;DHT22;54665;51.462;6.698;2022-07-23T16:03:29;24.87;46.26
67862;DHT22;54665;51.462;6.698;2022-07-23T16:05:55;25.53;46.64